KSEG/SEG METAR and TAF weather

Enter ICAO airport designator
Station Type Date Time Source
KSEG METAR 2020/09/26 21:53 UTC NOAA

KSEG 262153Z AUTO 00000KT 10SM OVC023 19/16 A3003 RMK AO2 SLP167 T01940161


Station Type Date Time Source
KSEG Decoded METAR 2020/09/26 21:53 UTC NOAA

SELINSGROVE PENN VALLEY AIRPORT , PA, United States (KSEG) 40-49N 076-52W 134M
Sep 26, 2020 - 05:53 PM EDT / 2020.09.26 2153 UTC
Wind: Calm:0
Visibility: 10 mile(s):0
Sky conditions: overcast
Temperature: 66.9 F (19.4 C)
Dew Point: 61.0 F (16.1 C)
Relative Humidity: 81%
Pressure (altimeter): 30.03 in. Hg (1016 hPa)
ob: KSEG 262153Z AUTO 00000KT 10SM OVC023 19/16 A3003 RMK AO2 SLP167 T01940161
cycle: 22

Station Type Date Time Source
KSEG TAF UTC NOAA

Error!

Example: see airport list